NLSK1: Solomon River, Niles, KS

                                SHEF ID:       NLSK1     SOLOMON R AT NILES, KS
STATION TYPE:

PRECIP STAGE RIV-FLOW BAT-LOAD
in ft cfs volt
Ccp-Rev Ccp-Rev Ccp-Rev Ccp-Rev
(America/Chicago)
06/30 00:00 0.00 10.08 1040 11.98
06/30 01:00 0.00 10.03 1029 11.93
06/30 02:00 0.00 9.98 1017 11.95
06/30 03:00 0.00 9.93 1006 12.00
06/30 04:00 0.00 9.88 995 11.98
06/30 05:00 0.00 9.83 983 11.95
06/30 06:00 0.00 9.78 972 11.82
06/30 07:00 0.00 9.72 959 11.79
06/30 08:00 0.00 9.67 948 11.81
06/30 09:00 0.00 9.61 934 11.86
06/30 10:00 0.00 9.55 921 11.83
06/30 11:00 0.00 9.50 910 11.77
06/30 12:00 0.00 9.45 900 11.71
06/30 13:00 0.00 9.40 889 11.90
06/30 14:00 0.00 9.33 874 12.23
06/30 15:00 0.00 9.28 863 12.21
06/30 16:00 0.00 9.22 850 12.21
06/30 17:00 0.00 9.17 840 11.97
06/30 18:00 0.00 9.11 827 11.96
06/30 19:00 0.00 9.06 817 11.88
06/30 20:00 0.00 9.00 805 11.89
06/30 21:00 0.00 8.94 792 11.75
06/30 22:00 0.00 8.88 780 11.72
06/30 23:00 0.00 8.83 770 11.71
Data processed at Wed 01Jul2026 04:41 GMT

NOTICE: If you are parsing this page

Please convert to using our Data API. Starting early 2026 we will be migrating to: https://water.usace.army.mil with modern pages rendered in JavaScript. When this migration completes you will no longer be able to scrape this page! CWMSDataAPI (CDA)

Timeseries IDs (TSIDs)

TSIDs used from left to right in the data table
NLSK.Precip-Inc.Total.1Hour.1Hour.Ccp-Rev
NLSK.Stage.Inst.1Hour.0.Ccp-Rev
NLSK.Flow.Inst.1Hour.0.Ccp-Rev
NLSK.Volt-Battery Load.Inst.1Hour.0.Ccp-Rev

                            

All information presented herein is the property of the government of the United States of America and may be revised or deleted at any time without prior notice. Dissemination of this information without the expressed written consent of the Public Affairs Office, Tulsa District U.S. Army Corps of Engineers is strictly prohibited. These data are gathered electronically and, as presented, have NOT undergone any form of quality control. These data are NOT guaranteed to be valid or correct.